Time;durP1;ratioP1;P1;durP2;ratioP2;P2;SDS_P1;SDS_P2;PMS_P1;PMS_P2;Temp;Humidity;BMP_temperature;BMP_pressure;BME280_temperature;BME280_humidity;BME280_pressure;Samples;Min_cycle;Max_cycle;Signal;HPM_P1;HPM_P2
2022/01/23 00:00:55;;;;;;;14.18;8.20;;;4.80;96.70;;;;;;5012525;28;20068;-78
2022/01/23 00:03:24;;;;;;;11.27;7.53;;;4.90;96.70;;;;;;5041709;28;20045;-78
2022/01/23 00:05:53;;;;;;;12.77;8.05;;;4.80;96.70;;;;;;5043780;28;20140;-78
2022/01/23 00:08:24;;;;;;;15.07;8.70;;;4.70;96.70;;;;;;5041976;28;20638;-77
2022/01/23 00:10:53;;;;;;;12.45;7.90;;;4.70;96.70;;;;;;5024930;28;20655;-78
2022/01/23 00:18:54;;;;;;;15.35;9.05;;;4.60;96.70;;;;;;5042675;28;20501;-77
2022/01/23 00:21:22;;;;;;;11.70;7.68;;;4.60;96.70;;;;;;5046249;28;20279;-78
2022/01/23 00:32:07;;;;;;;15.63;7.88;;;4.30;96.70;;;;;;5046503;28;20582;-77
2022/01/23 00:34:36;;;;;;;12.57;8.48;;;4.40;96.70;;;;;;5033214;28;20041;-78
2022/01/23 00:37:06;;;;;;;10.15;7.15;;;4.40;96.70;;;;;;5050391;28;20048;-78
2022/01/23 00:39:37;;;;;;;11.32;7.22;;;4.40;96.70;;;;;;5043588;28;20103;-78
2022/01/23 00:42:06;;;;;;;13.18;7.68;;;4.40;96.70;;;;;;5047145;28;20048;-78
2022/01/23 00:44:36;;;;;;;13.57;7.75;;;4.40;96.70;;;;;;5046882;28;20178;-78
2022/01/23 00:47:11;;;;;;;13.57;7.07;;;4.30;96.70;;;;;;5025887;28;20654;-78
2022/01/23 00:49:39;;;;;;;10.63;6.85;;;4.30;96.70;;;;;;5042602;28;20039;-77
2022/01/23 00:52:07;;;;;;;10.88;7.43;;;4.40;96.70;;;;;;5043420;28;20045;-78
2022/01/23 00:54:36;;;;;;;11.15;7.03;;;4.40;96.70;;;;;;5026915;28;20053;-78
2022/01/23 00:57:05;;;;;;;12.88;7.88;;;4.40;96.70;;;;;;5044488;28;20584;-78
2022/01/23 00:59:34;;;;;;;15.88;8.07;;;4.50;96.70;;;;;;5049604;28;20049;-78
2022/01/23 01:02:03;;;;;;;12.95;7.90;;;4.40;96.70;;;;;;5047066;28;20041;-78
2022/01/23 01:04:31;;;;;;;12.40;7.32;;;4.30;96.70;;;;;;5047667;28;20041;-77
2022/01/23 01:06:59;;;;;;;11.32;8.10;;;4.20;96.70;;;;;;5030429;28;20044;-77
2022/01/23 01:09:29;;;;;;;11.27;7.55;;;4.20;96.70;;;;;;5037680;28;20045;-78
2022/01/23 01:12:05;;;;;;;13.38;7.72;;;4.10;96.70;;;;;;5051105;28;20048;-77
2022/01/23 01:31:12;;;;;;;14.45;8.07;;;4.00;96.70;;;;;;5041076;28;20436;-78
2022/01/23 01:33:52;;;;;;;14.43;7.38;;;4.00;96.70;;;;;;5042116;28;20041;-77
2022/01/23 01:39:03;;;;;;;10.70;6.78;;;4.10;96.70;;;;;;5050253;28;20450;-78
2022/01/23 01:41:34;;;;;;;16.17;8.30;;;4.10;96.70;;;;;;5043148;28;20098;-78
2022/01/23 01:44:04;;;;;;;12.23;7.22;;;4.10;96.70;;;;;;5042095;28;20102;-78
2022/01/23 01:46:47;;;;;;;10.70;7.10;;;4.00;96.70;;;;;;5044386;28;20410;-78
2022/01/23 01:49:23;;;;;;;12.32;7.00;;;4.00;96.70;;;;;;5050230;28;20044;-78
2022/01/23 01:51:52;;;;;;;10.33;7.10;;;4.00;96.70;;;;;;5040045;28;20564;-78
2022/01/23 01:54:25;;;;;;;11.60;7.25;;;4.10;96.70;;;;;;5028043;28;20036;-78
2022/01/23 01:57:09;;;;;;;11.30;7.95;;;4.10;96.70;;;;;;5024349;28;20352;-77
2022/01/23 02:00:13;;;;;;;11.93;7.50;;;4.00;96.70;;;;;;5048984;28;20178;-77
2022/01/23 02:03:18;;;;;;;11.57;6.75;;;4.00;96.70;;;;;;5047182;28;20048;-79
2022/01/23 02:08:48;;;;;;;12.65;6.97;;;4.00;96.70;;;;;;5062975;28;20069;-77
2022/01/23 02:11:44;;;;;;;14.23;7.50;;;4.00;96.70;;;;;;5054400;28;20044;-77
2022/01/23 02:14:31;;;;;;;10.50;6.75;;;3.90;96.70;;;;;;5039087;28;20570;-78
2022/01/23 02:17:27;;;;;;;;;;;4.00;96.70;;;;;;5039806;28;20044;-77
2022/01/23 02:23:02;;;;;;;11.20;6.88;;;4.00;96.70;;;;;;5026302;28;20481;-78
2022/01/23 02:51:14;;;;;;;8.73;5.20;;;3.70;96.70;;;;;;5040801;28;19968;-78
2022/01/23 02:56:37;;;;;;;10.27;6.43;;;3.80;96.70;;;;;;5023817;28;20101;-77
2022/01/23 02:59:20;;;;;;;8.88;6.07;;;3.80;96.70;;;;;;5024397;28;20048;-78
2022/01/23 03:05:08;;;;;;;9.88;6.72;;;3.80;96.70;;;;;;5035743;28;20053;-78
2022/01/23 03:07:54;;;;;;;11.30;7.40;;;3.60;96.70;;;;;;5020645;28;20135;-78
2022/01/23 03:10:28;;;;;;;9.50;6.07;;;3.60;96.70;;;;;;5043690;28;20049;-78
2022/01/23 03:29:50;;;;;;;9.73;6.53;;;3.40;96.70;;;;;;5022662;28;20049;-79
2022/01/23 03:31:43;;;;;;;10.98;6.78;;;3.10;96.70;;;;;;5039357;28;20134;-79
2022/01/23 03:34:12;;;;;;;10.88;6.50;;;3.30;96.70;;;;;;5062607;28;20720;-79
2022/01/23 03:36:40;;;;;;;11.00;6.93;;;3.50;96.70;;;;;;5056839;28;20033;-79
2022/01/23 03:39:09;;;;;;;9.45;6.15;;;3.50;96.70;;;;;;5027240;28;20051;-79
2022/01/23 03:41:40;;;;;;;9.38;6.53;;;3.60;96.70;;;;;;5055447;28;20044;-79
2022/01/23 03:44:11;;;;;;;9.45;6.35;;;3.50;96.70;;;;;;5058322;28;20449;-79
2022/01/23 03:46:50;;;;;;;10.30;6.93;;;3.50;96.70;;;;;;5025425;28;20177;-79
2022/01/23 03:49:31;;;;;;;10.23;6.72;;;3.40;96.70;;;;;;5040680;28;20453;-79
2022/01/23 03:52:26;;;;;;;9.68;6.32;;;3.40;96.70;;;;;;5041495;28;20183;-79
2022/01/23 03:54:54;;;;;;;8.80;6.45;;;3.60;96.70;;;;;;5040006;28;20059;-79
2022/01/23 03:57:24;;;;;;;10.85;6.22;;;3.50;96.70;;;;;;5027219;28;20048;-80
2022/01/23 03:59:52;;;;;;;11.40;5.97;;;3.40;96.70;;;;;;5039803;28;20056;-79
2022/01/23 04:02:20;;;;;;;9.32;5.38;;;3.40;96.70;;;;;;5040942;28;20132;-79
2022/01/23 04:04:49;;;;;;;9.75;5.20;;;3.40;96.70;;;;;;5044187;28;20135;-78
2022/01/23 04:07:24;;;;;;;7.90;5.25;;;3.50;96.70;;;;;;5039565;28;20738;-79
2022/01/23 04:09:53;;;;;;;10.15;5.10;;;3.40;96.70;;;;;;5046022;28;20053;-79
2022/01/23 04:12:39;;;;;;;7.70;4.88;;;3.40;96.70;;;;;;5027402;28;20041;-79
2022/01/23 05:04:40;;;;;;;6.55;4.72;;;3.50;96.70;;;;;;5043910;28;20056;-79
2022/01/23 05:07:31;;;;;;;10.20;5.63;;;3.50;96.70;;;;;;5046489;28;20049;-80
2022/01/23 05:10:35;;;;;;;10.00;5.95;;;3.50;96.70;;;;;;4972477;28;20069;-81
2022/01/23 05:13:11;;;;;;;11.77;6.40;;;3.30;96.70;;;;;;5044696;28;20051;-80
2022/01/23 05:15:39;;;;;;;11.20;5.97;;;3.40;96.70;;;;;;5047814;28;20076;-80
2022/01/23 05:18:09;;;;;;;9.90;6.63;;;3.40;96.70;;;;;;5044998;28;20435;-80
2022/01/23 05:20:38;;;;;;;12.52;7.03;;;3.30;96.70;;;;;;5059574;28;20520;-80
2022/01/23 05:23:07;;;;;;;10.20;5.95;;;3.30;96.70;;;;;;5044833;28;20041;-79
2022/01/23 05:25:37;;;;;;;9.80;6.10;;;3.30;96.70;;;;;;5047403;28;20414;-79
2022/01/23 05:28:08;;;;;;;9.40;6.50;;;3.40;96.70;;;;;;5029876;28;20048;-79
2022/01/23 05:30:38;;;;;;;8.38;5.97;;;3.20;96.70;;;;;;5045144;28;20123;-80
2022/01/23 05:33:06;;;;;;;11.23;6.53;;;3.20;96.70;;;;;;5043765;28;20128;-79
2022/01/23 05:35:36;;;;;;;7.55;5.75;;;3.20;96.70;;;;;;5028645;28;20045;-79
2022/01/23 05:38:05;;;;;;;10.02;6.00;;;3.20;96.70;;;;;;5050096;28;20078;-78
2022/01/23 05:40:33;;;;;;;11.02;6.20;;;3.20;96.70;;;;;;5022066;28;20053;-79
2022/01/23 05:43:03;;;;;;;11.48;6.45;;;3.20;96.70;;;;;;5056149;28;20041;-81
2022/01/23 05:45:37;;;;;;;10.45;6.57;;;3.30;96.70;;;;;;5058310;28;20533;-78
2022/01/23 05:48:06;;;;;;;8.57;6.00;;;3.30;96.70;;;;;;5047475;28;20144;-84
2022/01/23 05:50:53;;;;;;;9.63;6.38;;;3.30;96.70;;;;;;5042918;28;20206;-78
2022/01/23 05:53:44;;;;;;;9.88;6.18;;;3.20;96.70;;;;;;5040057;28;20376;-77
2022/01/23 05:56:36;;;;;;;10.60;6.57;;;2.90;96.70;;;;;;5027638;28;20059;-79
2022/01/23 05:59:17;;;;;;;11.05;6.00;;;3.10;96.70;;;;;;5043877;28;20059;-78
2022/01/23 06:01:51;;;;;;;9.35;6.13;;;3.20;96.70;;;;;;5028340;28;20049;-78
2022/01/23 06:04:25;;;;;;;10.07;6.57;;;3.20;96.70;;;;;;5048869;28;20045;-78
2022/01/23 06:07:21;;;;;;;11.68;6.88;;;3.30;96.70;;;;;;5041807;28;20052;-78
2022/01/23 06:09:58;;;;;;;11.80;6.85;;;3.30;96.70;;;;;;5038324;28;20033;-77
2022/01/23 06:12:27;;;;;;;9.15;6.13;;;3.30;96.70;;;;;;5046023;28;20040;-78
2022/01/23 06:14:55;;;;;;;9.65;6.22;;;3.30;96.70;;;;;;5057436;28;20036;-79
2022/01/23 06:17:25;;;;;;;11.77;6.70;;;3.30;96.70;;;;;;5041936;28;20033;-79
2022/01/23 06:20:20;;;;;;;9.27;6.22;;;3.40;96.70;;;;;;5023824;28;20364;-78
2022/01/23 06:23:08;;;;;;;10.52;6.70;;;3.40;96.70;;;;;;5042002;28;20051;-79
2022/01/23 06:25:57;;;;;;;9.50;5.70;;;3.40;96.70;;;;;;5033613;28;20570;-80
2022/01/23 06:28:49;;;;;;;10.30;6.67;;;3.40;96.70;;;;;;5055078;28;20528;-79
2022/01/23 06:31:19;;;;;;;8.57;5.63;;;3.40;96.70;;;;;;5060876;28;20328;-79
2022/01/23 06:33:47;;;;;;;8.23;5.80;;;3.30;96.70;;;;;;5028979;28;20041;-79
2022/01/23 06:36:16;;;;;;;9.20;5.65;;;3.40;96.70;;;;;;5045194;28;20051;-79
2022/01/23 06:38:45;;;;;;;8.57;5.70;;;3.40;96.70;;;;;;5049347;28;20037;-80
2022/01/23 06:41:15;;;;;;;9.40;5.60;;;3.30;96.70;;;;;;5059759;28;20118;-79
2022/01/23 06:43:46;;;;;;;8.82;5.15;;;3.40;96.70;;;;;;5045878;28;20044;-79
2022/01/23 06:46:22;;;;;;;11.23;5.72;;;3.50;96.70;;;;;;5030820;28;20124;-79
2022/01/23 06:48:50;;;;;;;8.25;5.82;;;3.60;96.70;;;;;;5024068;28;20040;-80
2022/01/23 06:51:19;;;;;;;10.55;5.93;;;3.60;96.70;;;;;;5056704;28;20041;-78
2022/01/23 06:53:49;;;;;;;8.68;4.95;;;3.60;96.70;;;;;;5040210;28;20033;-78
2022/01/23 06:56:18;;;;;;;8.48;5.50;;;3.50;96.70;;;;;;5046182;28;20580;-78
2022/01/23 06:58:48;;;;;;;9.77;5.63;;;3.50;96.70;;;;;;5042839;28;20075;-78
2022/01/23 07:01:17;;;;;;;10.23;6.60;;;3.70;96.70;;;;;;5043009;28;20493;-78
2022/01/23 07:04:02;;;;;;;11.23;6.05;;;3.40;96.70;;;;;;5028388;28;20068;-78
2022/01/23 07:06:57;;;;;;;10.27;6.60;;;3.50;96.70;;;;;;5042876;28;20037;-78
2022/01/23 07:09:45;;;;;;;8.18;5.78;;;3.50;96.70;;;;;;5044834;28;20181;-78
2022/01/23 07:12:31;;;;;;;8.98;6.53;;;3.50;96.70;;;;;;5030424;28;20049;-78
2022/01/23 07:15:22;;;;;;;11.10;6.22;;;3.40;96.70;;;;;;5039455;28;20215;-78
2022/01/23 07:18:11;;;;;;;9.65;6.70;;;3.50;96.70;;;;;;5012816;28;20049;-78
2022/01/23 07:20:43;;;;;;;11.82;6.20;;;3.50;96.70;;;;;;5042152;28;20048;-78
2022/01/23 07:23:21;;;;;;;11.10;6.65;;;3.50;96.70;;;;;;5041115;28;20075;-79
2022/01/23 07:25:52;;;;;;;11.68;7.18;;;3.60;96.70;;;;;;5044464;28;20041;-78
2022/01/23 07:28:24;;;;;;;10.75;6.45;;;3.60;96.70;;;;;;5043212;28;20977;-78
2022/01/23 07:30:57;;;;;;;11.00;6.78;;;3.70;96.70;;;;;;5059803;28;20524;-78
2022/01/23 07:33:26;;;;;;;9.02;6.18;;;3.70;96.70;;;;;;5046094;28;20099;-78
2022/01/23 07:35:54;;;;;;;9.82;7.00;;;3.90;96.70;;;;;;5042199;28;20163;-78
2022/01/23 07:38:24;;;;;;;15.10;6.90;;;3.80;96.70;;;;;;5024242;28;20382;-79
2022/01/23 07:41:06;;;;;;;10.15;6.70;;;3.80;96.70;;;;;;5039785;28;20251;-78
2022/01/23 07:43:50;;;;;;;11.20;6.78;;;3.80;96.70;;;;;;5060559;28;20750;-78
2022/01/23 07:46:21;;;;;;;9.82;6.88;;;3.90;96.70;;;;;;5043140;28;20566;-78
2022/01/23 07:49:08;;;;;;;13.50;8.10;;;4.00;96.70;;;;;;5043103;28;20052;-78
2022/01/23 07:52:14;;;;;;;10.23;7.30;;;4.00;96.70;;;;;;5037691;28;20536;-78
2022/01/23 07:55:08;;;;;;;12.10;7.13;;;3.90;96.70;;;;;;5010034;28;20569;-77
2022/01/23 07:57:52;;;;;;;12.82;8.43;;;4.10;96.70;;;;;;5023258;28;20045;-77
2022/01/23 08:00:37;;;;;;;15.73;8.25;;;4.20;96.70;;;;;;5038791;28;20056;-78
2022/01/23 08:03:06;;;;;;;13.15;8.48;;;4.10;96.70;;;;;;5062857;28;20041;-79
2022/01/23 08:05:35;;;;;;;14.13;8.88;;;4.20;96.70;;;;;;5041237;28;20201;-78
2022/01/23 08:08:21;;;;;;;14.43;9.07;;;4.20;96.70;;;;;;5042858;28;20101;-78
2022/01/23 08:10:56;;;;;;;12.18;8.43;;;4.20;96.70;;;;;;5028733;28;20040;-79
2022/01/23 08:13:26;;;;;;;14.80;9.70;;;4.30;96.70;;;;;;5066247;28;20437;-78
2022/01/23 08:15:54;;;;;;;16.25;10.93;;;4.30;96.70;;;;;;5048960;28;20041;-79
2022/01/23 08:18:22;;;;;;;14.50;9.90;;;4.20;96.70;;;;;;5020378;28;20049;-78
2022/01/23 08:20:51;;;;;;;14.73;10.23;;;4.30;96.70;;;;;;5057750;28;20419;-78
2022/01/23 08:23:22;;;;;;;18.33;11.75;;;4.40;96.70;;;;;;5041435;28;20143;-79
2022/01/23 08:25:50;;;;;;;19.83;12.65;;;4.20;96.70;;;;;;5061513;28;20045;-78
2022/01/23 08:28:18;;;;;;;16.48;11.07;;;4.30;96.70;;;;;;5039035;28;20049;-79
2022/01/23 08:30:48;;;;;;;15.68;10.27;;;4.40;96.70;;;;;;5042165;28;20560;-78
2022/01/23 08:33:16;;;;;;;16.55;10.05;;;4.50;96.70;;;;;;5039999;28;20049;-78
2022/01/23 08:35:45;;;;;;;15.20;10.70;;;4.50;96.70;;;;;;5039681;28;20577;-77
2022/01/23 08:38:14;;;;;;;17.00;10.88;;;4.60;96.70;;;;;;5040420;28;20585;-78
2022/01/23 08:43:11;;;;;;;15.95;11.85;;;4.70;96.70;;;;;;5046557;28;20064;-78
2022/01/23 08:45:40;;;;;;;13.50;10.30;;;4.70;96.70;;;;;;5042524;28;20483;-78
2022/01/23 08:48:10;;;;;;;15.25;10.25;;;4.80;96.70;;;;;;5044180;28;20041;-78
2022/01/23 08:50:39;;;;;;;15.25;10.35;;;4.80;96.70;;;;;;5046625;28;20584;-78
2022/01/23 08:53:07;;;;;;;13.20;9.68;;;4.90;96.70;;;;;;5064850;28;20602;-78
2022/01/23 08:55:35;;;;;;;16.50;11.25;;;5.00;96.70;;;;;;5044150;28;20037;-78
2022/01/23 08:58:03;;;;;;;16.77;11.48;;;5.10;96.70;;;;;;5047633;28;20138;-78
2022/01/23 09:00:31;;;;;;;14.32;10.60;;;5.10;96.70;;;;;;5042528;28;20046;-78
2022/01/23 09:03:00;;;;;;;15.57;10.80;;;5.10;96.70;;;;;;5058276;28;20048;-77
2022/01/23 09:05:30;;;;;;;18.00;13.05;;;5.10;96.70;;;;;;5041899;28;20141;-78
2022/01/23 09:07:58;;;;;;;19.75;13.20;;;5.10;96.70;;;;;;5043554;28;20064;-77
2022/01/23 09:10:29;;;;;;;18.25;13.70;;;5.00;96.70;;;;;;5035361;28;20090;-77
2022/01/23 09:13:16;;;;;;;20.58;11.77;;;5.10;96.70;;;;;;5043876;28;20038;-77
2022/01/23 09:15:44;;;;;;;;;;;5.20;96.70;;;;;;5043395;28;20517;-78
2022/01/23 09:18:12;;;;;;;13.93;9.40;;;5.30;96.70;;;;;;5042900;28;20196;-77
2022/01/23 09:20:42;;;;;;;13.63;9.13;;;5.40;96.70;;;;;;5054735;28;20145;-76
2022/01/23 09:23:10;;;;;;;15.10;9.82;;;5.40;96.70;;;;;;5045192;28;20041;-76
2022/01/23 09:25:39;;;;;;;11.32;8.75;;;5.50;96.70;;;;;;5043841;28;20120;-76
2022/01/23 09:28:14;;;;;;;12.40;8.90;;;5.50;96.70;;;;;;5042251;28;20057;-76
2022/01/23 09:30:44;;;;;;;13.52;9.00;;;5.60;96.70;;;;;;5043408;28;20145;-76
2022/01/23 09:33:13;;;;;;;11.20;8.02;;;5.80;96.70;;;;;;5043626;28;20068;-76
2022/01/23 09:35:42;;;;;;;12.60;8.35;;;6.00;96.70;;;;;;5043616;28;20036;-77
2022/01/23 09:38:10;;;;;;;12.88;8.70;;;6.10;96.70;;;;;;5042439;28;20127;-76
2022/01/23 09:40:43;;;;;;;11.57;7.90;;;6.20;96.70;;;;;;5046554;28;20128;-76
2022/01/23 09:43:16;;;;;;;12.88;8.85;;;6.30;96.70;;;;;;5043540;28;20094;-76
2022/01/23 09:45:47;;;;;;;11.57;8.18;;;6.40;96.70;;;;;;5030687;28;20067;-77
2022/01/23 09:48:16;;;;;;;11.73;7.78;;;6.60;96.70;;;;;;5041034;28;20480;-77
2022/01/23 09:50:48;;;;;;;11.30;7.95;;;6.60;96.70;;;;;;5043064;28;20056;-76
2022/01/23 09:53:16;;;;;;;11.13;7.22;;;6.60;96.70;;;;;;5042978;28;20803;-76
2022/01/23 09:55:46;;;;;;;11.05;7.32;;;6.70;96.70;;;;;;5042716;28;20526;-77
2022/01/23 09:58:14;;;;;;;12.52;8.25;;;6.80;96.70;;;;;;5042824;28;20449;-76
2022/01/23 10:00:42;;;;;;;11.80;7.55;;;7.00;96.70;;;;;;5046495;28;20512;-76
2022/01/23 10:03:11;;;;;;;11.85;8.02;;;7.20;96.70;;;;;;5044292;28;20097;-76
2022/01/23 10:05:40;;;;;;;10.70;8.07;;;7.30;96.70;;;;;;5043791;28;20071;-77
2022/01/23 10:08:11;;;;;;;13.10;7.88;;;7.50;96.70;;;;;;5045138;28;20122;-76
2022/01/23 10:10:40;;;;;;;17.50;11.30;;;7.70;96.70;;;;;;5038376;28;20116;-77
2022/01/23 10:13:10;;;;;;;27.48;19.42;;;7.70;96.70;;;;;;5040097;28;20041;-77
2022/01/23 10:15:39;;;;;;;16.63;13.35;;;7.90;96.70;;;;;;5042018;28;20043;-76
2022/01/23 10:18:07;;;;;;;14.15;9.88;;;7.90;96.70;;;;;;5042031;28;20048;-76
2022/01/23 10:20:35;;;;;;;20.75;14.70;;;7.90;96.70;;;;;;5040010;28;20049;-77
2022/01/23 10:23:04;;;;;;;19.50;12.63;;;7.80;96.70;;;;;;5042760;28;20150;-77
2022/01/23 10:25:35;;;;;;;17.60;11.85;;;7.80;96.70;;;;;;5029689;28;20080;-76
2022/01/23 10:28:06;;;;;;;14.82;9.90;;;7.80;96.70;;;;;;5051369;28;20048;-76
2022/01/23 10:30:41;;;;;;;13.73;10.02;;;7.90;96.70;;;;;;5044129;28;20400;-76
2022/01/23 10:33:11;;;;;;;17.17;9.93;;;7.90;96.70;;;;;;5039626;28;20045;-76
2022/01/23 10:35:58;;;;;;;13.82;10.13;;;7.90;96.70;;;;;;5040628;28;20438;-76
2022/01/23 10:38:29;;;;;;;13.93;9.73;;;7.90;96.70;;;;;;5040830;28;20036;-76
2022/01/23 10:41:05;;;;;;;13.77;9.73;;;7.90;96.70;;;;;;5045650;28;20425;-76
2022/01/23 10:49:21;;;;;;;13.07;9.02;;;8.00;96.70;;;;;;5042906;28;20564;-76
2022/01/23 10:51:50;;;;;;;14.57;9.60;;;7.90;96.70;;;;;;5043228;28;20047;-76
2022/01/23 10:54:24;;;;;;;13.32;9.48;;;7.90;96.70;;;;;;5022669;28;20045;-76
2022/01/23 10:57:04;;;;;;;13.95;9.77;;;7.90;96.70;;;;;;5038148;28;20578;-76
2022/01/23 10:59:44;;;;;;;13.73;9.63;;;7.90;96.70;;;;;;5037283;28;20068;-76
2022/01/23 11:02:14;;;;;;;12.20;8.75;;;7.90;96.70;;;;;;5039326;28;20057;-77
2022/01/23 11:04:58;;;;;;;13.45;9.48;;;8.00;96.70;;;;;;5040893;28;20048;-77
2022/01/23 11:07:27;;;;;;;12.98;9.15;;;8.10;96.70;;;;;;5041264;28;20103;-77
2022/01/23 11:09:58;;;;;;;12.48;9.15;;;8.10;96.70;;;;;;5025693;28;20152;-77
2022/01/23 11:18:10;;;;;;;42.90;23.13;;;8.60;96.70;;;;;;5038317;28;20211;-77
2022/01/23 11:20:40;;;;;;;41.65;23.92;;;8.60;96.70;;;;;;5039050;28;20055;-77
2022/01/23 11:23:14;;;;;;;32.83;21.10;;;8.40;96.70;;;;;;5037171;28;20045;-76
2022/01/23 11:25:44;;;;;;;42.80;22.65;;;8.40;96.70;;;;;;5057878;28;20126;-76
2022/01/23 11:28:14;;;;;;;27.27;16.10;;;8.50;96.70;;;;;;5046029;28;20137;-77
2022/01/23 11:30:45;;;;;;;25.05;17.20;;;8.60;96.70;;;;;;5043773;28;20044;-76
2022/01/23 11:33:18;;;;;;;28.63;17.13;;;8.50;96.70;;;;;;5043095;28;20435;-76
2022/01/23 11:35:47;;;;;;;27.42;17.38;;;8.60;96.70;;;;;;5029507;28;20041;-76
2022/01/23 11:38:18;;;;;;;23.27;16.55;;;8.60;96.70;;;;;;5047121;28;20069;-77
2022/01/23 11:54:45;;;;;;;22.67;14.93;;;8.80;96.70;;;;;;5041242;28;20515;-77
2022/01/23 11:57:37;;;;;;;26.70;16.08;;;8.80;96.70;;;;;;5022151;28;20045;-76
2022/01/23 12:00:23;;;;;;;24.23;16.05;;;8.90;96.70;;;;;;5043879;28;20063;-76
2022/01/23 12:03:14;;;;;;;20.63;13.68;;;9.00;96.70;;;;;;5055983;28;20057;-75
2022/01/23 12:05:45;;;;;;;21.70;14.25;;;9.00;96.70;;;;;;5053542;28;20049;-77
2022/01/23 12:08:23;;;;;;;24.58;15.90;;;9.10;96.70;;;;;;5038315;28;20204;-76
2022/01/23 12:11:39;;;;;;;25.30;16.58;;;9.10;96.70;;;;;;5038776;28;20045;-76
2022/01/23 12:17:16;;;;;;;18.85;14.60;;;9.20;96.70;;;;;;5048871;28;20063;-76
2022/01/23 12:19:47;;;;;;;22.70;14.35;;;9.40;96.70;;;;;;5023761;28;20053;-76
2022/01/23 12:22:37;;;;;;;19.58;13.55;;;9.50;96.70;;;;;;5038834;28;20459;-76
2022/01/23 12:25:28;;;;;;;18.73;13.35;;;9.50;96.70;;;;;;5042564;28;20406;-77
2022/01/23 12:28:14;;;;;;;16.65;12.07;;;9.60;96.70;;;;;;5043822;28;20045;-76
2022/01/23 12:30:44;;;;;;;16.55;12.02;;;9.60;96.70;;;;;;5045028;28;20048;-76
2022/01/23 12:33:29;;;;;;;19.67;12.23;;;9.70;96.70;;;;;;5026892;28;20320;-76
2022/01/23 12:36:06;;;;;;;18.80;13.07;;;9.70;96.70;;;;;;5044186;28;20593;-77
2022/01/23 12:38:38;;;;;;;17.52;12.77;;;10.00;96.70;;;;;;5044574;28;20040;-77
2022/01/23 12:41:23;;;;;;;16.38;11.15;;;10.10;96.70;;;;;;5046783;28;20037;-76
2022/01/23 12:43:55;;;;;;;15.20;11.05;;;10.20;96.70;;;;;;5060767;28;20049;-76
2022/01/23 12:46:35;;;;;;;14.23;9.85;;;10.20;96.70;;;;;;5051118;28;20592;-76
2022/01/23 12:49:27;;;;;;;14.25;9.63;;;10.20;96.70;;;;;;5044386;28;20041;-76
2022/01/23 12:52:14;;;;;;;11.68;8.52;;;10.50;96.70;;;;;;5046281;28;20107;-75
2022/01/23 12:54:56;;;;;;;12.02;8.68;;;10.90;96.70;;;;;;5041665;28;20037;-75
2022/01/23 12:57:36;;;;;;;12.55;8.60;;;11.20;96.70;;;;;;5024010;28;20075;-75
2022/01/23 13:00:09;;;;;;;11.82;8.63;;;11.50;96.70;;;;;;5042623;28;20033;-75
2022/01/23 13:02:46;;;;;;;11.18;8.00;;;11.70;96.70;;;;;;5049222;28;20517;-75
2022/01/23 13:05:17;;;;;;;11.30;8.52;;;11.90;96.70;;;;;;5048783;28;20041;-75
2022/01/23 13:08:05;;;;;;;11.60;7.72;;;12.10;96.70;;;;;;5041972;28;20106;-77
2022/01/23 13:13:23;;;;;;;13.35;8.98;;;12.00;96.70;;;;;;5043351;28;20047;-78
2022/01/23 13:16:13;;;;;;;11.48;8.43;;;12.20;96.70;;;;;;5045427;28;20045;-77
2022/01/23 13:19:12;;;;;;;9.75;8.23;;;12.30;96.70;;;;;;5044235;28;20060;-77
2022/01/23 13:28:47;;;;;;;10.05;8.20;;;12.20;96.70;;;;;;4983357;28;20088;-75
2022/01/23 13:30:47;;;;;;;10.80;7.72;;;12.00;96.70;;;;;;5051149;28;20060;-75
2022/01/23 13:33:21;;;;;;;11.25;7.80;;;11.90;96.70;;;;;;5040758;28;20317;-77
2022/01/23 13:35:53;;;;;;;12.23;10.43;;;11.80;96.70;;;;;;5040971;28;20051;-77
2022/01/23 13:38:24;;;;;;;14.38;10.75;;;11.70;96.70;;;;;;5042836;28;20074;-77
2022/01/23 13:41:07;;;;;;;17.00;12.48;;;11.60;96.70;;;;;;5046719;28;20050;-77
2022/01/23 13:52:26;;;;;;;16.75;13.45;;;11.10;96.70;;;;;;5042132;28;20044;-77
2022/01/23 14:00:38;;;;;;;19.08;13.90;;;11.00;96.70;;;;;;5020318;28;20056;-77
2022/01/23 14:03:08;;;;;;;19.95;14.15;;;11.00;96.70;;;;;;5042287;28;20049;-77
2022/01/23 14:05:37;;;;;;;26.60;16.08;;;10.90;96.70;;;;;;5020707;28;20041;-79
2022/01/23 14:08:06;;;;;;;23.48;14.90;;;10.90;96.70;;;;;;5024791;28;20549;-76
2022/01/23 14:10:38;;;;;;;19.83;12.68;;;10.80;96.70;;;;;;5042643;28;20124;-77
2022/01/23 14:13:08;;;;;;;23.10;14.32;;;10.80;96.70;;;;;;5043826;28;20063;-77
2022/01/23 14:15:44;;;;;;;19.25;13.35;;;10.70;96.70;;;;;;5039970;28;20126;-77
2022/01/23 14:18:13;;;;;;;19.20;12.98;;;10.70;96.70;;;;;;5021275;28;20041;-77
2022/01/23 14:20:43;;;;;;;16.75;13.63;;;10.60;96.70;;;;;;5056751;28;20052;-75
2022/01/23 14:23:13;;;;;;;19.27;13.48;;;10.60;96.70;;;;;;5044017;28;20420;-74
2022/01/23 14:25:48;;;;;;;17.83;13.00;;;10.50;96.70;;;;;;5040818;28;20041;-75
2022/01/23 14:28:19;;;;;;;16.13;12.95;;;10.50;96.70;;;;;;5044587;28;20667;-77
2022/01/23 14:30:50;;;;;;;16.13;12.15;;;10.50;96.70;;;;;;5017971;28;20050;-76
2022/01/23 14:33:22;;;;;;;17.77;13.40;;;10.40;96.70;;;;;;5039163;28;20045;-76
2022/01/23 14:35:52;;;;;;;18.83;12.95;;;10.40;96.70;;;;;;5058521;28;20484;-78
2022/01/23 14:38:23;;;;;;;16.55;12.73;;;10.30;96.70;;;;;;5043326;28;20099;-78
2022/01/23 14:40:58;;;;;;;16.75;12.40;;;10.30;96.70;;;;;;5045199;28;20047;-78
2022/01/23 14:43:31;;;;;;;17.15;13.02;;;10.30;96.70;;;;;;5044324;28;20055;-78
2022/01/23 14:46:03;;;;;;;17.65;12.43;;;10.30;96.70;;;;;;5045156;28;20450;-78
2022/01/23 14:48:37;;;;;;;17.92;12.48;;;10.30;96.70;;;;;;5058528;28;20052;-78
2022/01/23 14:51:07;;;;;;;17.27;11.95;;;10.20;96.70;;;;;;5041695;28;20041;-77
2022/01/23 14:53:38;;;;;;;18.58;12.00;;;10.20;96.70;;;;;;5024349;28;20037;-80
2022/01/23 14:56:10;;;;;;;14.77;11.50;;;10.20;96.70;;;;;;5061890;28;20058;-77
2022/01/23 14:58:40;;;;;;;16.23;11.80;;;10.20;96.70;;;;;;5057966;28;20568;-77
2022/01/23 15:01:11;;;;;;;16.15;12.57;;;10.20;96.70;;;;;;5043828;28;20494;-77
2022/01/23 15:03:43;;;;;;;16.90;11.77;;;10.20;96.70;;;;;;5052893;28;20044;-77
2022/01/23 15:06:29;;;;;;;18.15;11.98;;;10.20;96.70;;;;;;5040395;28;20048;-78
2022/01/23 15:09:03;;;;;;;14.10;11.20;;;10.20;96.70;;;;;;5043614;28;20339;-77
2022/01/23 15:11:34;;;;;;;16.50;11.77;;;10.20;96.70;;;;;;5046123;28;20041;-77
2022/01/23 15:14:03;;;;;;;15.48;11.65;;;10.20;96.70;;;;;;5041271;28;20061;-77
2022/01/23 15:16:31;;;;;;;14.63;11.30;;;10.20;96.70;;;;;;5030864;28;20036;-78
2022/01/23 15:18:59;;;;;;;17.33;12.70;;;10.20;96.70;;;;;;5043689;28;20037;-78
2022/01/23 15:21:28;;;;;;;18.15;12.82;;;10.20;96.70;;;;;;5019593;28;20045;-78
2022/01/23 15:23:57;;;;;;;17.58;12.38;;;10.20;96.70;;;;;;5023918;28;20801;-77
2022/01/23 15:26:26;;;;;;;16.13;12.02;;;10.20;96.70;;;;;;5039430;28;20533;-78
2022/01/23 15:29:01;;;;;;;16.83;12.10;;;10.20;96.70;;;;;;5044001;28;20047;-77
2022/01/23 15:31:30;;;;;;;15.15;10.73;;;10.20;96.70;;;;;;5036401;28;20067;-78
2022/01/23 15:33:58;;;;;;;16.85;11.57;;;10.10;96.70;;;;;;5024314;28;20045;-77
2022/01/23 15:36:26;;;;;;;16.73;10.90;;;10.10;96.70;;;;;;5042649;28;20539;-78
2022/01/23 15:38:54;;;;;;;16.55;11.23;;;10.10;96.70;;;;;;5043577;28;20419;-77
2022/01/23 15:41:22;;;;;;;20.88;11.70;;;10.10;96.70;;;;;;5039018;28;20029;-78
2022/01/23 15:43:51;;;;;;;18.52;12.50;;;10.50;96.70;;;;;;5037669;28;20168;-77
2022/01/23 15:46:22;;;;;;;22.35;14.07;;;11.30;96.70;;;;;;5041780;28;20037;-77
2022/01/23 15:48:51;;;;;;;20.77;14.63;;;11.70;96.70;;;;;;5037728;28;20037;-77
2022/01/23 15:51:19;;;;;;;19.65;13.63;;;12.10;96.70;;;;;;5038658;28;20096;-79
2022/01/23 15:53:47;;;;;;;21.27;13.88;;;12.30;96.70;;;;;;5037290;28;20045;-78
2022/01/23 15:56:16;;;;;;;17.00;12.85;;;12.40;96.70;;;;;;5044753;28;20140;-78
2022/01/23 15:58:44;;;;;;;16.95;12.05;;;12.30;96.70;;;;;;5049004;28;20072;-78
2022/01/23 16:01:13;;;;;;;16.95;11.57;;;12.10;96.70;;;;;;5045959;28;20033;-79
2022/01/23 16:03:43;;;;;;;15.68;11.68;;;11.60;96.70;;;;;;5047615;28;20055;-78
2022/01/23 16:06:12;;;;;;;15.55;11.82;;;11.10;96.70;;;;;;5051684;28;20461;-78
2022/01/23 16:08:40;;;;;;;15.82;11.55;;;10.70;96.70;;;;;;5050121;28;20528;-78
2022/01/23 16:11:09;;;;;;;16.02;11.55;;;10.40;96.70;;;;;;5042749;28;21735;-78
2022/01/23 16:13:37;;;;;;;16.45;11.23;;;10.20;96.70;;;;;;5044936;28;20047;-79
2022/01/23 16:16:06;;;;;;;17.58;12.15;;;10.00;96.70;;;;;;5045857;28;20502;-78
2022/01/23 16:18:34;;;;;;;17.08;12.88;;;9.80;96.70;;;;;;5050077;28;20445;-78
2022/01/23 16:21:04;;;;;;;16.42;11.75;;;9.70;96.70;;;;;;5041824;28;20514;-78
2022/01/23 16:23:32;;;;;;;17.35;13.18;;;9.60;96.70;;;;;;5046529;28;20049;-78
2022/01/23 16:26:10;;;;;;;17.35;13.57;;;9.40;96.70;;;;;;5029104;28;20536;-77
2022/01/23 16:28:39;;;;;;;22.15;13.43;;;9.30;96.70;;;;;;5044977;28;20049;-79